sensor_id;sensor_type;location;lat;lon;timestamp;pressure;altitude;pressure_sealevel;temperature;humidity
49030;BME280;43337;52.070;4.508;2023-05-07T00:01:35;101729.09;;;14.39;100.00
49030;BME280;43337;52.070;4.508;2023-05-07T00:04:00;101747.63;;;14.39;100.00
49030;BME280;43337;52.070;4.508;2023-05-07T00:06:26;101731.44;;;14.26;100.00
49030;BME280;43337;52.070;4.508;2023-05-07T00:08:54;101749.56;;;14.35;100.00
49030;BME280;43337;52.070;4.508;2023-05-07T00:11:20;101747.91;;;14.33;100.00
49030;BME280;43337;52.070;4.508;2023-05-07T00:13:46;101752.28;;;14.34;100.00
49030;BME280;43337;52.070;4.508;2023-05-07T00:16:11;101751.41;;;14.33;100.00
49030;BME280;43337;52.070;4.508;2023-05-07T00:18:37;101757.63;;;14.32;100.00
49030;BME280;43337;52.070;4.508;2023-05-07T00:21:03;101736.13;;;14.20;100.00
49030;BME280;43337;52.070;4.508;2023-05-07T00:23:28;101720.59;;;14.10;100.00
49030;BME280;43337;52.070;4.508;2023-05-07T00:25:53;101737.97;;;14.17;100.00
49030;BME280;43337;52.070;4.508;2023-05-07T00:28:19;101754.47;;;14.24;100.00
49030;BME280;43337;52.070;4.508;2023-05-07T00:30:44;101746.59;;;14.23;100.00
49030;BME280;43337;52.070;4.508;2023-05-07T00:33:10;101744.84;;;14.22;100.00
49030;BME280;43337;52.070;4.508;2023-05-07T00:35:35;101739.56;;;14.22;100.00
49030;BME280;43337;52.070;4.508;2023-05-07T00:38:02;101752.75;;;14.23;100.00
49030;BME280;43337;52.070;4.508;2023-05-07T00:40:27;101745.06;;;14.17;100.00
49030;BME280;43337;52.070;4.508;2023-05-07T00:42:53;101722.47;;;14.08;100.00
49030;BME280;43337;52.070;4.508;2023-05-07T00:45:26;101735.66;;;14.10;100.00
49030;BME280;43337;52.070;4.508;2023-05-07T00:47:54;101747.81;;;14.14;100.00
49030;BME280;43337;52.070;4.508;2023-05-07T00:50:20;101731.53;;;14.03;100.00
49030;BME280;43337;52.070;4.508;2023-05-07T00:52:46;101715.06;;;13.96;100.00
49030;BME280;43337;52.070;4.508;2023-05-07T00:55:11;101727.03;;;14.05;100.00
49030;BME280;43337;52.070;4.508;2023-05-07T00:57:41;101738.25;;;14.11;100.00
49030;BME280;43337;52.070;4.508;2023-05-07T01:00:10;101736.50;;;14.10;100.00
49030;BME280;43337;52.070;4.508;2023-05-07T01:02:38;101746.75;;;14.18;100.00
49030;BME280;43337;52.070;4.508;2023-05-07T01:05:05;101742.28;;;14.20;100.00
49030;BME280;43337;52.070;4.508;2023-05-07T01:07:32;101735.31;;;14.17;100.00
49030;BME280;43337;52.070;4.508;2023-05-07T01:09:59;101740.56;;;14.19;100.00
49030;BME280;43337;52.070;4.508;2023-05-07T01:12:26;101733.53;;;14.18;100.00
49030;BME280;43337;52.070;4.508;2023-05-07T01:14:53;101736.91;;;14.22;100.00
49030;BME280;43337;52.070;4.508;2023-05-07T01:17:18;101732.50;;;14.22;100.00
49030;BME280;43337;52.070;4.508;2023-05-07T01:19:44;101730.81;;;14.20;100.00
49030;BME280;43337;52.070;4.508;2023-05-07T01:22:10;101724.53;;;14.22;100.00
49030;BME280;43337;52.070;4.508;2023-05-07T01:24:37;101719.63;;;14.13;100.00
49030;BME280;43337;52.070;4.508;2023-05-07T01:27:03;101721.22;;;14.17;100.00
49030;BME280;43337;52.070;4.508;2023-05-07T01:29:29;101719.72;;;14.11;100.00
49030;BME280;43337;52.070;4.508;2023-05-07T01:32:00;101709.44;;;14.04;100.00
49030;BME280;43337;52.070;4.508;2023-05-07T01:34:28;101710.31;;;14.04;100.00
49030;BME280;43337;52.070;4.508;2023-05-07T01:36:56;101711.03;;;14.08;100.00
49030;BME280;43337;52.070;4.508;2023-05-07T01:39:27;101721.81;;;14.03;100.00
49030;BME280;43337;52.070;4.508;2023-05-07T01:41:56;101719.34;;;13.99;100.00
49030;BME280;43337;52.070;4.508;2023-05-07T01:44:22;101727.25;;;14.00;100.00
49030;BME280;43337;52.070;4.508;2023-05-07T01:46:49;101724.72;;;13.97;100.00
49030;BME280;43337;52.070;4.508;2023-05-07T01:49:15;101720.41;;;13.95;100.00
49030;BME280;43337;52.070;4.508;2023-05-07T01:51:46;101731.84;;;13.95;100.00
49030;BME280;43337;52.070;4.508;2023-05-07T01:54:12;101719.56;;;13.94;100.00
49030;BME280;43337;52.070;4.508;2023-05-07T01:56:38;101724.00;;;13.93;100.00
49030;BME280;43337;52.070;4.508;2023-05-07T01:59:03;101718.78;;;13.92;100.00
49030;BME280;43337;52.070;4.508;2023-05-07T02:01:29;101722.19;;;13.94;100.00
49030;BME280;43337;52.070;4.508;2023-05-07T02:03:55;101729.03;;;14.00;100.00
49030;BME280;43337;52.070;4.508;2023-05-07T02:06:20;101704.91;;;13.85;100.00
49030;BME280;43337;52.070;4.508;2023-05-07T02:08:46;101731.53;;;14.03;100.00
49030;BME280;43337;52.070;4.508;2023-05-07T02:11:12;101730.75;;;14.01;100.00
49030;BME280;43337;52.070;4.508;2023-05-07T02:13:37;101723.66;;;14.01;100.00
49030;BME280;43337;52.070;4.508;2023-05-07T02:16:03;101727.13;;;14.03;100.00
49030;BME280;43337;52.070;4.508;2023-05-07T02:18:28;101717.44;;;14.02;100.00
49030;BME280;43337;52.070;4.508;2023-05-07T02:20:54;101719.19;;;14.03;100.00
49030;BME280;43337;52.070;4.508;2023-05-07T02:23:19;101725.22;;;14.07;100.00
49030;BME280;43337;52.070;4.508;2023-05-07T02:25:45;101731.19;;;14.10;100.00
49030;BME280;43337;52.070;4.508;2023-05-07T02:28:11;101729.50;;;14.09;100.00
49030;BME280;43337;52.070;4.508;2023-05-07T02:30:37;101709.78;;;13.96;100.00
49030;BME280;43337;52.070;4.508;2023-05-07T02:33:02;101728.63;;;14.09;100.00
49030;BME280;43337;52.070;4.508;2023-05-07T02:35:28;101704.41;;;13.98;100.00
49030;BME280;43337;52.070;4.508;2023-05-07T02:37:53;101736.44;;;14.12;100.00
49030;BME280;43337;52.070;4.508;2023-05-07T02:40:18;101739.03;;;14.13;100.00
49030;BME280;43337;52.070;4.508;2023-05-07T02:42:45;101725.22;;;14.07;100.00
49030;BME280;43337;52.070;4.508;2023-05-07T02:45:11;101735.59;;;14.11;100.00
49030;BME280;43337;52.070;4.508;2023-05-07T02:47:36;101715.00;;;13.98;100.00
49030;BME280;43337;52.070;4.508;2023-05-07T02:50:02;101733.19;;;14.05;100.00
49030;BME280;43337;52.070;4.508;2023-05-07T02:52:28;101736.66;;;14.07;100.00
49030;BME280;43337;52.070;4.508;2023-05-07T02:54:53;101709.81;;;13.95;100.00
49030;BME280;43337;52.070;4.508;2023-05-07T02:57:18;101727.91;;;14.05;100.00
49030;BME280;43337;52.070;4.508;2023-05-07T02:59:43;101727.91;;;14.05;100.00
49030;BME280;43337;52.070;4.508;2023-05-07T03:02:09;101722.16;;;13.96;100.00
49030;BME280;43337;52.070;4.508;2023-05-07T03:04:36;101735.97;;;14.02;100.00
49030;BME280;43337;52.070;4.508;2023-05-07T03:07:06;101737.84;;;14.00;100.00
49030;BME280;43337;52.070;4.508;2023-05-07T03:09:31;101718.63;;;13.95;100.00
49030;BME280;43337;52.070;4.508;2023-05-07T03:11:57;101724.59;;;14.00;100.00
49030;BME280;43337;52.070;4.508;2023-05-07T03:14:22;101731.53;;;14.03;100.00
49030;BME280;43337;52.070;4.508;2023-05-07T03:16:49;101731.47;;;14.04;100.00
49030;BME280;43337;52.070;4.508;2023-05-07T03:19:16;101736.69;;;14.06;100.00
49030;BME280;43337;52.070;4.508;2023-05-07T03:21:42;101725.34;;;14.04;100.00
49030;BME280;43337;52.070;4.508;2023-05-07T03:24:07;101726.91;;;14.08;100.00
49030;BME280;43337;52.070;4.508;2023-05-07T03:26:33;101723.47;;;14.06;100.00
49030;BME280;43337;52.070;4.508;2023-05-07T03:28:58;101719.97;;;14.05;100.00
49030;BME280;43337;52.070;4.508;2023-05-07T03:31:24;101727.78;;;14.08;100.00
49030;BME280;43337;52.070;4.508;2023-05-07T03:33:56;101703.53;;;13.97;100.00
49030;BME280;43337;52.070;4.508;2023-05-07T03:36:22;101721.66;;;14.06;100.00
49030;BME280;43337;52.070;4.508;2023-05-07T03:38:48;101724.28;;;14.08;100.00
49030;BME280;43337;52.070;4.508;2023-05-07T03:41:16;101721.63;;;14.08;100.00
49030;BME280;43337;52.070;4.508;2023-05-07T03:43:42;101732.94;;;14.11;100.00
49030;BME280;43337;52.070;4.508;2023-05-07T03:46:07;101693.19;;;13.91;100.00
49030;BME280;43337;52.070;4.508;2023-05-07T03:48:32;101721.66;;;14.06;100.00
49030;BME280;43337;52.070;4.508;2023-05-07T03:50:58;101719.84;;;14.08;100.00
49030;BME280;43337;52.070;4.508;2023-05-07T03:53:24;101722.56;;;14.07;100.00
49030;BME280;43337;52.070;4.508;2023-05-07T03:55:51;101715.84;;;13.98;100.00
49030;BME280;43337;52.070;4.508;2023-05-07T03:58:16;101734.06;;;14.06;100.00
49030;BME280;43337;52.070;4.508;2023-05-07T04:00:42;101720.94;;;14.03;100.00
49030;BME280;43337;52.070;4.508;2023-05-07T04:03:08;101724.66;;;13.99;100.00
49030;BME280;43337;52.070;4.508;2023-05-07T04:05:33;101707.50;;;13.87;100.00
49030;BME280;43337;52.070;4.508;2023-05-07T04:07:59;101721.25;;;13.95;100.00
49030;BME280;43337;52.070;4.508;2023-05-07T04:10:25;101737.75;;;14.02;100.00
49030;BME280;43337;52.070;4.508;2023-05-07T04:12:51;101743.78;;;14.05;100.00
49030;BME280;43337;52.070;4.508;2023-05-07T04:15:16;101743.78;;;14.05;100.00
49030;BME280;43337;52.070;4.508;2023-05-07T04:17:43;101749.03;;;14.07;100.00
49030;BME280;43337;52.070;4.508;2023-05-07T04:20:10;101739.22;;;14.09;100.00
49030;BME280;43337;52.070;4.508;2023-05-07T04:22:36;101744.53;;;14.09;100.00
49030;BME280;43337;52.070;4.508;2023-05-07T04:25:02;101748.03;;;14.09;100.00
49030;BME280;43337;52.070;4.508;2023-05-07T04:27:28;101741.88;;;14.09;100.00
49030;BME280;43337;52.070;4.508;2023-05-07T04:29:53;101741.78;;;14.10;100.00
49030;BME280;43337;52.070;4.508;2023-05-07T04:32:22;101746.19;;;14.11;100.00
49030;BME280;43337;52.070;4.508;2023-05-07T04:34:47;101732.22;;;14.08;100.00
49030;BME280;43337;52.070;4.508;2023-05-07T04:37:12;101737.63;;;14.05;100.00
49030;BME280;43337;52.070;4.508;2023-05-07T04:39:38;101741.03;;;14.08;100.00
49030;BME280;43337;52.070;4.508;2023-05-07T04:42:03;101729.91;;;14.00;100.00
49030;BME280;43337;52.070;4.508;2023-05-07T04:44:29;101747.81;;;14.14;100.00
49030;BME280;43337;52.070;4.508;2023-05-07T04:46:56;101745.13;;;14.15;100.00
49030;BME280;43337;52.070;4.508;2023-05-07T04:49:21;101732.41;;;14.03;100.00
49030;BME280;43337;52.070;4.508;2023-05-07T04:51:47;101746.75;;;14.18;100.00
49030;BME280;43337;52.070;4.508;2023-05-07T04:54:12;101753.81;;;14.19;100.00
49030;BME280;43337;52.070;4.508;2023-05-07T04:56:37;101750.31;;;14.19;100.00
49030;BME280;43337;52.070;4.508;2023-05-07T04:59:03;101752.00;;;14.20;100.00
49030;BME280;43337;52.070;4.508;2023-05-07T05:01:29;101740.78;;;14.14;100.00
49030;BME280;43337;52.070;4.508;2023-05-07T05:03:54;101749.38;;;14.20;100.00
49030;BME280;43337;52.070;4.508;2023-05-07T05:06:19;101740.56;;;14.19;100.00
49030;BME280;43337;52.070;4.508;2023-05-07T05:08:45;101736.13;;;14.20;100.00
49030;BME280;43337;52.070;4.508;2023-05-07T05:11:10;101756.13;;;14.27;100.00
49030;BME280;43337;52.070;4.508;2023-05-07T05:13:36;101752.47;;;14.29;100.00
49030;BME280;43337;52.070;4.508;2023-05-07T05:16:01;101759.34;;;14.33;100.00
49030;BME280;43337;52.070;4.508;2023-05-07T05:18:26;101765.38;;;14.37;100.00
49030;BME280;43337;52.070;4.508;2023-05-07T05:20:52;101767.91;;;14.40;100.00
49030;BME280;43337;52.070;4.508;2023-05-07T05:23:17;101770.53;;;14.40;100.00
49030;BME280;43337;52.070;4.508;2023-05-07T05:25:42;101757.63;;;14.32;100.00
49030;BME280;43337;52.070;4.508;2023-05-07T05:28:08;101771.41;;;14.40;100.00
49030;BME280;43337;52.070;4.508;2023-05-07T05:30:33;101765.19;;;14.41;100.00
49030;BME280;43337;52.070;4.508;2023-05-07T05:32:58;101772.13;;;14.44;100.00
49030;BME280;43337;52.070;4.508;2023-05-07T05:35:25;101769.47;;;14.44;100.00
49030;BME280;43337;52.070;4.508;2023-05-07T05:37:50;101774.66;;;14.47;100.00
49030;BME280;43337;52.070;4.508;2023-05-07T05:40:16;101745.25;;;14.33;100.00
49030;BME280;43337;52.070;4.508;2023-05-07T05:42:41;101779.78;;;14.52;100.00
49030;BME280;43337;52.070;4.508;2023-05-07T05:45:07;101785.88;;;14.54;100.00
49030;BME280;43337;52.070;4.508;2023-05-07T05:47:33;101782.44;;;14.52;100.00
49030;BME280;43337;52.070;4.508;2023-05-07T05:49:58;101790.13;;;14.58;100.00
49030;BME280;43337;52.070;4.508;2023-05-07T05:52:24;101782.19;;;14.58;100.00
49030;BME280;43337;52.070;4.508;2023-05-07T05:54:49;101787.34;;;14.61;100.00
49030;BME280;43337;52.070;4.508;2023-05-07T05:57:15;101755.16;;;14.48;100.00
49030;BME280;43337;52.070;4.508;2023-05-07T05:59:40;101792.31;;;14.69;100.00
49030;BME280;43337;52.070;4.508;2023-05-07T06:02:06;101793.09;;;14.71;100.00
49030;BME280;43337;52.070;4.508;2023-05-07T06:04:32;101784.06;;;14.75;100.00
49030;BME280;43337;52.070;4.508;2023-05-07T06:06:57;101761.56;;;14.64;100.00
49030;BME280;43337;52.070;4.508;2023-05-07T06:09:23;101784.56;;;14.83;100.00
49030;BME280;43337;52.070;4.508;2023-05-07T06:11:48;101776.78;;;14.80;100.00
49030;BME280;43337;52.070;4.508;2023-05-07T06:14:13;101757.69;;;14.72;100.00
49030;BME280;43337;52.070;4.508;2023-05-07T06:16:39;101783.31;;;14.92;100.00
49030;BME280;43337;52.070;4.508;2023-05-07T06:19:04;101789.06;;;15.01;100.00
49030;BME280;43337;52.070;4.508;2023-05-07T06:21:30;101792.28;;;15.08;100.00
49030;BME280;43337;52.070;4.508;2023-05-07T06:23:55;101757.44;;;14.97;100.00
49030;BME280;43337;52.070;4.508;2023-05-07T06:26:21;101790.13;;;15.16;100.00
49030;BME280;43337;52.070;4.508;2023-05-07T06:28:46;101766.91;;;15.02;100.00
49030;BME280;43337;52.070;4.508;2023-05-07T06:31:17;101770.22;;;15.07;100.00
49030;BME280;43337;52.070;4.508;2023-05-07T06:33:44;101787.53;;;15.33;100.00
49030;BME280;43337;52.070;4.508;2023-05-07T06:36:10;101766.53;;;15.29;100.00
49030;BME280;43337;52.070;4.508;2023-05-07T06:38:35;101799.59;;;15.59;100.00
49030;BME280;43337;52.070;4.508;2023-05-07T06:41:01;101808.16;;;15.66;100.00
49030;BME280;43337;52.070;4.508;2023-05-07T06:43:26;101808.00;;;15.69;100.00
49030;BME280;43337;52.070;4.508;2023-05-07T06:45:51;101790.41;;;15.67;100.00
49030;BME280;43337;52.070;4.508;2023-05-07T06:48:17;101786.63;;;15.53;100.00
49030;BME280;43337;52.070;4.508;2023-05-07T06:50:42;101768.47;;;15.44;100.00
49030;BME280;43337;52.070;4.508;2023-05-07T06:53:08;101795.50;;;15.52;100.00
49030;BME280;43337;52.070;4.508;2023-05-07T06:55:33;101787.25;;;15.39;100.00
49030;BME280;43337;52.070;4.508;2023-05-07T06:57:59;101801.13;;;15.46;100.00
49030;BME280;43337;52.070;4.508;2023-05-07T07:00:26;101782.09;;;15.36;100.00
49030;BME280;43337;52.070;4.508;2023-05-07T07:02:53;101813.66;;;15.61;100.00
49030;BME280;43337;52.070;4.508;2023-05-07T07:05:19;101800.09;;;15.68;100.00
49030;BME280;43337;52.070;4.508;2023-05-07T07:07:44;101785.97;;;15.67;100.00
49030;BME280;43337;52.070;4.508;2023-05-07T07:10:17;101788.56;;;15.69;100.00
49030;BME280;43337;52.070;4.508;2023-05-07T07:12:43;101794.75;;;15.69;100.00
49030;BME280;43337;52.070;4.508;2023-05-07T07:15:09;101800.81;;;15.71;100.00
49030;BME280;43337;52.070;4.508;2023-05-07T07:17:35;101804.41;;;15.70;100.00
49030;BME280;43337;52.070;4.508;2023-05-07T07:20:00;101774.25;;;15.52;100.00
49030;BME280;43337;52.070;4.508;2023-05-07T07:22:25;101795.72;;;15.67;100.00
49030;BME280;43337;52.070;4.508;2023-05-07T07:24:51;101803.41;;;15.73;100.00
49030;BME280;43337;52.070;4.508;2023-05-07T07:27:16;101790.28;;;15.70;100.00
49030;BME280;43337;52.070;4.508;2023-05-07T07:29:41;101801.88;;;15.86;100.00
49030;BME280;43337;52.070;4.508;2023-05-07T07:32:07;101802.91;;;16.01;100.00
49030;BME280;43337;52.070;4.508;2023-05-07T07:34:32;101792.13;;;16.04;100.00
49030;BME280;43337;52.070;4.508;2023-05-07T07:36:58;101806.97;;;16.25;100.00
49030;BME280;43337;52.070;4.508;2023-05-07T07:39:23;101782.91;;;16.28;100.00
49030;BME280;43337;52.070;4.508;2023-05-07T07:41:48;101793.59;;;16.44;100.00
49030;BME280;43337;52.070;4.508;2023-05-07T07:44:14;101800.78;;;16.59;100.00
49030;BME280;43337;52.070;4.508;2023-05-07T07:46:39;101792.91;;;16.58;100.00
49030;BME280;43337;52.070;4.508;2023-05-07T07:49:04;101793.50;;;16.63;100.00
49030;BME280;43337;52.070;4.508;2023-05-07T07:51:30;101783.72;;;16.64;100.00
49030;BME280;43337;52.070;4.508;2023-05-07T07:53:55;101781.63;;;16.70;100.00
49030;BME280;43337;52.070;4.508;2023-05-07T07:56:23;101774.38;;;16.74;100.00
49030;BME280;43337;52.070;4.508;2023-05-07T07:58:48;101774.91;;;16.80;100.00
49030;BME280;43337;52.070;4.508;2023-05-07T08:01:14;101773.41;;;16.75;100.00
49030;BME280;43337;52.070;4.508;2023-05-07T08:03:39;101791.91;;;16.94;100.00
49030;BME280;43337;52.070;4.508;2023-05-07T08:06:05;101802.06;;;17.03;100.00
49030;BME280;43337;52.070;4.508;2023-05-07T08:08:31;101788.78;;;17.03;100.00
49030;BME280;43337;52.070;4.508;2023-05-07T08:10:56;101795.44;;;17.10;100.00
49030;BME280;43337;52.070;4.508;2023-05-07T08:13:21;101800.34;;;17.18;100.00
49030;BME280;43337;52.070;4.508;2023-05-07T08:15:47;101811.22;;;17.30;100.00
49030;BME280;43337;52.070;4.508;2023-05-07T08:18:12;101817.41;;;17.47;100.00
49030;BME280;43337;52.070;4.508;2023-05-07T08:20:37;101809.94;;;17.53;100.00
49030;BME280;43337;52.070;4.508;2023-05-07T08:23:05;101805.88;;;17.62;100.00
49030;BME280;43337;52.070;4.508;2023-05-07T08:25:33;101819.91;;;17.81;100.00
49030;BME280;43337;52.070;4.508;2023-05-07T08:27:58;101823.09;;;17.88;100.00
49030;BME280;43337;52.070;4.508;2023-05-07T08:30:23;101833.13;;;17.99;100.00
49030;BME280;43337;52.070;4.508;2023-05-07T08:32:49;101810.84;;;18.00;100.00
49030;BME280;43337;52.070;4.508;2023-05-07T08:35:14;101837.97;;;18.22;100.00
49030;BME280;43337;52.070;4.508;2023-05-07T08:37:40;101824.66;;;18.22;100.00
49030;BME280;43337;52.070;4.508;2023-05-07T08:40:05;101827.84;;;18.43;100.00
49030;BME280;43337;52.070;4.508;2023-05-07T08:42:31;101831.97;;;18.63;100.00
49030;BME280;43337;52.070;4.508;2023-05-07T08:44:59;101836.94;;;18.69;100.00
49030;BME280;43337;52.070;4.508;2023-05-07T08:47:29;101829.66;;;18.73;100.00
49030;BME280;43337;52.070;4.508;2023-05-07T08:49:55;101823.19;;;18.77;100.00
49030;BME280;43337;52.070;4.508;2023-05-07T08:52:20;101823.28;;;18.90;100.00
49030;BME280;43337;52.070;4.508;2023-05-07T08:54:46;101825.66;;;18.94;100.00
49030;BME280;43337;52.070;4.508;2023-05-07T08:57:12;101813.56;;;19.03;100.00
49030;BME280;43337;52.070;4.508;2023-05-07T08:59:38;101822.97;;;19.23;100.00
49030;BME280;43337;52.070;4.508;2023-05-07T09:02:05;101803.72;;;19.18;100.00
49030;BME280;43337;52.070;4.508;2023-05-07T09:04:33;101832.09;;;19.33;100.00
49030;BME280;43337;52.070;4.508;2023-05-07T09:06:58;101819.66;;;19.19;100.00
49030;BME280;43337;52.070;4.508;2023-05-07T09:09:32;101827.38;;;19.24;100.00
49030;BME280;43337;52.070;4.508;2023-05-07T09:11:58;101816.13;;;19.19;100.00
49030;BME280;43337;52.070;4.508;2023-05-07T09:14:27;101831.97;;;19.22;100.00
49030;BME280;43337;52.070;4.508;2023-05-07T09:16:53;101831.06;;;19.21;100.00
49030;BME280;43337;52.070;4.508;2023-05-07T09:19:25;101840.53;;;19.27;100.00
49030;BME280;43337;52.070;4.508;2023-05-07T09:21:58;101836.72;;;19.31;100.00
49030;BME280;43337;52.070;4.508;2023-05-07T09:24:24;101812.97;;;19.26;100.00
49030;BME280;43337;52.070;4.508;2023-05-07T09:26:49;101832.09;;;19.47;100.00
49030;BME280;43337;52.070;4.508;2023-05-07T09:29:15;101832.47;;;19.56;100.00
49030;BME280;43337;52.070;4.508;2023-05-07T09:31:40;101837.25;;;19.65;100.00
49030;BME280;43337;52.070;4.508;2023-05-07T09:34:06;101840.28;;;19.73;100.00
49030;BME280;43337;52.070;4.508;2023-05-07T09:36:32;101838.72;;;19.83;100.00
49030;BME280;43337;52.070;4.508;2023-05-07T09:39:00;101844.78;;;19.99;100.00
49030;BME280;43337;52.070;4.508;2023-05-07T09:41:27;101847.28;;;20.15;100.00
49030;BME280;43337;52.070;4.508;2023-05-07T09:43:57;101847.75;;;20.22;100.00
49030;BME280;43337;52.070;4.508;2023-05-07T09:46:30;101837.34;;;20.17;100.00
49030;BME280;43337;52.070;4.508;2023-05-07T09:49:01;101840.91;;;20.18;100.00
49030;BME280;43337;52.070;4.508;2023-05-07T09:51:34;101846.00;;;20.21;100.00
49030;BME280;43337;52.070;4.508;2023-05-07T09:54:02;101846.25;;;20.18;100.00
49030;BME280;43337;52.070;4.508;2023-05-07T09:56:29;101854.47;;;20.15;100.00
49030;BME280;43337;52.070;4.508;2023-05-07T09:59:00;101841.16;;;20.00;100.00
49030;BME280;43337;52.070;4.508;2023-05-07T10:01:26;101849.94;;;20.03;100.00
49030;BME280;43337;52.070;4.508;2023-05-07T10:03:52;101847.47;;;19.99;100.00
49030;BME280;43337;52.070;4.508;2023-05-07T10:06:19;101851.94;;;19.99;100.00
49030;BME280;43337;52.070;4.508;2023-05-07T10:08:45;101849.00;;;19.89;100.00
49030;BME280;43337;52.070;4.508;2023-05-07T10:11:11;101851.13;;;19.84;100.00
49030;BME280;43337;52.070;4.508;2023-05-07T10:13:36;101850.47;;;19.81;100.00
49030;BME280;43337;52.070;4.508;2023-05-07T10:16:04;101854.47;;;19.88;100.00
49030;BME280;43337;52.070;4.508;2023-05-07T10:18:31;101859.41;;;19.94;100.00
49030;BME280;43337;52.070;4.508;2023-05-07T10:21:07;101858.69;;;20.05;100.00
49030;BME280;43337;52.070;4.508;2023-05-07T10:23:34;101858.72;;;20.17;100.00
49030;BME280;43337;52.070;4.508;2023-05-07T10:26:03;101860.56;;;20.17;100.00
49030;BME280;43337;52.070;4.508;2023-05-07T10:28:33;101857.47;;;20.23;100.00
49030;BME280;43337;52.070;4.508;2023-05-07T10:31:27;101847.31;;;20.28;100.00
49030;BME280;43337;52.070;4.508;2023-05-07T10:33:58;101849.28;;;20.39;100.00
49030;BME280;43337;52.070;4.508;2023-05-07T10:36:24;101844.09;;;20.50;100.00
49030;BME280;43337;52.070;4.508;2023-05-07T10:38:50;101826.97;;;20.53;100.00
49030;BME280;43337;52.070;4.508;2023-05-07T10:41:16;101853.88;;;20.77;100.00
49030;BME280;43337;52.070;4.508;2023-05-07T10:43:45;101849.69;;;20.85;100.00
49030;BME280;43337;52.070;4.508;2023-05-07T10:46:18;101843.59;;;20.83;100.00
49030;BME280;43337;52.070;4.508;2023-05-07T10:49:13;101858.78;;;20.95;100.00
49030;BME280;43337;52.070;4.508;2023-05-07T10:51:43;101864.47;;;21.04;100.00
49030;BME280;43337;52.070;4.508;2023-05-07T10:56:41;101859.09;;;21.04;100.00
49030;BME280;43337;52.070;4.508;2023-05-07T11:01:57;101873.34;;;21.17;100.00
49030;BME280;43337;52.070;4.508;2023-05-07T11:04:24;101849.22;;;21.17;100.00
49030;BME280;43337;52.070;4.508;2023-05-07T11:07:26;101867.66;;;21.21;100.00
49030;BME280;43337;52.070;4.508;2023-05-07T11:09:56;101870.31;;;21.21;100.00
49030;BME280;43337;52.070;4.508;2023-05-07T11:15:04;101859.31;;;21.26;100.00
49030;BME280;43337;52.070;4.508;2023-05-07T11:17:30;101866.28;;;21.41;100.00
49030;BME280;43337;52.070;4.508;2023-05-07T11:20:01;101860.47;;;21.48;100.00
49030;BME280;43337;52.070;4.508;2023-05-07T11:24:55;101860.38;;;21.36;100.00
49030;BME280;43337;52.070;4.508;2023-05-07T11:27:24;101859.72;;;21.45;100.00
49030;BME280;43337;52.070;4.508;2023-05-07T11:29:50;101855.56;;;21.41;100.00
49030;BME280;43337;52.070;4.508;2023-05-07T11:32:37;101848.81;;;21.36;100.00
49030;BME280;43337;52.070;4.508;2023-05-07T11:35:04;101848.72;;;21.37;100.00
49030;BME280;43337;52.070;4.508;2023-05-07T11:37:31;101864.63;;;21.52;100.00
49030;BME280;43337;52.070;4.508;2023-05-07T11:40:09;101860.31;;;21.62;100.00
49030;BME280;43337;52.070;4.508;2023-05-07T11:42:39;101860.19;;;21.76;100.00
49030;BME280;43337;52.070;4.508;2023-05-07T11:45:07;101868.84;;;21.80;100.00
49030;BME280;43337;52.070;4.508;2023-05-07T11:47:33;101866.19;;;21.80;100.00
49030;BME280;43337;52.070;4.508;2023-05-07T11:50:03;101872.47;;;21.91;100.00
49030;BME280;43337;52.070;4.508;2023-05-07T11:52:30;101848.88;;;21.84;100.00
49030;BME280;43337;52.070;4.508;2023-05-07T11:54:56;101866.63;;;21.98;100.00
49030;BME280;43337;52.070;4.508;2023-05-07T11:57:23;101864.06;;;21.96;100.00
49030;BME280;43337;52.070;4.508;2023-05-07T11:59:59;101864.97;;;22.08;100.00
49030;BME280;43337;52.070;4.508;2023-05-07T12:02:25;101864.84;;;22.22;100.00
49030;BME280;43337;52.070;4.508;2023-05-07T12:04:54;101872.53;;;22.27;100.00
49030;BME280;43337;52.070;4.508;2023-05-07T12:07:21;101873.78;;;22.34;100.00
49030;BME280;43337;52.070;4.508;2023-05-07T12:09:47;101878.91;;;22.37;100.00
49030;BME280;43337;52.070;4.508;2023-05-07T12:12:13;101870.25;;;22.33;100.00
49030;BME280;43337;52.070;4.508;2023-05-07T12:14:43;101874.25;;;22.28;100.00
49030;BME280;43337;52.070;4.508;2023-05-07T12:17:10;101879.09;;;22.23;100.00
49030;BME280;43337;52.070;4.508;2023-05-07T12:19:37;101873.88;;;22.08;100.00
49030;BME280;43337;52.070;4.508;2023-05-07T12:22:05;101892.25;;;22.02;100.00
49030;BME280;43337;52.070;4.508;2023-05-07T12:24:49;101878.38;;;21.84;100.00
49030;BME280;43337;52.070;4.508;2023-05-07T12:27:15;101887.63;;;21.67;100.00
49030;BME280;43337;52.070;4.508;2023-05-07T12:29:48;101883.94;;;21.44;100.00
49030;BME280;43337;52.070;4.508;2023-05-07T12:32:18;101881.91;;;21.22;100.00
49030;BME280;43337;52.070;4.508;2023-05-07T12:34:45;101876.34;;;21.00;100.00
49030;BME280;43337;52.070;4.508;2023-05-07T12:37:10;101898.91;;;20.83;100.00
49030;BME280;43337;52.070;4.508;2023-05-07T12:39:37;101884.66;;;20.57;100.00
49030;BME280;43337;52.070;4.508;2023-05-07T12:42:03;101904.78;;;20.50;100.00
49030;BME280;43337;52.070;4.508;2023-05-07T12:44:32;101913.13;;;20.31;100.00
49030;BME280;43337;52.070;4.508;2023-05-07T12:46:58;101914.34;;;20.12;100.00
49030;BME280;43337;52.070;4.508;2023-05-07T12:49:26;101900.75;;;19.88;100.00